Terminal Aerodrome Forecast
Issued by NWS

Home | Current Version | Previous Version | Graphics & Text | Print | Product List | Glossary Off
Versions: 1 2 3 4 5 6 7 8 9 10 11 12 13 14 15 16 17 18 19

000
FTUS43 KDDC 252320
TAFHYS
TAF
KHYS 252320Z 2600/2624 06006KT P6SM SKC
     FM260400 05004KT P6SM BKN060
     FM261200 05006KT P6SM OVC040
     FM261600 11006KT P6SM BKN100=

USA.gov is the U.S. government's official web portal to all federal, state and local government web resources and services.